Time;durP1;ratioP1;P1;durP2;ratioP2;P2;SDS_P1;SDS_P2;PMS_P1;PMS_P2;Temp;Humidity;BMP_temperature;BMP_pressure;BME280_temperature;BME280_humidity;BME280_pressure;Samples;Min_cycle;Max_cycle;Signal;HPM_P1;HPM_P2
2022/07/17 00:04:00;;;;;;;4.20;2.50;;;21.00;21.40;;;;;;10429602;28;20229;-70
2022/07/17 00:09:03;;;;;;;5.83;2.77;;;21.10;21.80;;;;;;10430299;28;20617;-70
2022/07/17 00:14:07;;;;;;;3.83;2.47;;;21.10;21.60;;;;;;10432146;28;20705;-70
2022/07/17 00:19:11;;;;;;;3.30;2.43;;;21.10;21.50;;;;;;10438317;28;20225;-70
2022/07/17 00:24:19;;;;;;;2.87;2.40;;;21.10;21.90;;;;;;10436805;28;20235;-70
2022/07/17 00:29:23;;;;;;;2.50;2.30;;;21.00;22.00;;;;;;10438864;28;20232;-70
2022/07/17 00:34:27;;;;;;;2.37;2.17;;;20.90;21.40;;;;;;10437394;28;20231;-70
2022/07/17 00:39:31;;;;;;;2.63;2.43;;;20.70;21.70;;;;;;10442909;28;20737;-70
2022/07/17 00:44:34;;;;;;;2.60;2.40;;;20.40;21.70;;;;;;10441603;28;20236;-70
2022/07/17 00:49:39;;;;;;;2.70;2.50;;;20.20;22.00;;;;;;10443562;28;20232;-70
2022/07/17 00:54:44;;;;;;;4.07;2.30;;;20.20;22.50;;;;;;10437091;28;20689;-70
2022/07/17 00:59:47;;;;;;;3.00;2.70;;;20.20;22.40;;;;;;10444238;28;20229;-70
2022/07/17 01:04:52;;;;;;;2.87;2.50;;;20.10;22.20;;;;;;10432846;28;20299;-70
2022/07/17 01:09:55;;;;;;;2.53;2.33;;;20.00;22.50;;;;;;10434992;28;20712;-70
2022/07/17 01:15:00;;;;;;;2.90;2.57;;;19.80;22.70;;;;;;10437764;28;20381;-70
2022/07/17 01:20:06;;;;;;;3.00;2.63;;;19.70;22.60;;;;;;10435641;28;20224;-70
2022/07/17 01:25:11;;;;;;;2.70;2.50;;;19.60;23.20;;;;;;10434974;28;20233;-70
2022/07/17 01:30:14;;;;;;;2.50;2.23;;;19.60;23.20;;;;;;10436642;28;20236;-70
2022/07/17 01:35:19;;;;;;;2.47;2.27;;;19.70;23.00;;;;;;10439608;28;20233;-70
2022/07/17 01:40:23;;;;;;;3.70;2.77;;;19.70;23.00;;;;;;10444865;28;21091;-70
2022/07/17 01:45:26;;;;;;;3.03;2.83;;;19.80;23.30;;;;;;10441401;28;20241;-70
2022/07/17 01:50:30;;;;;;;3.77;2.83;;;19.70;23.00;;;;;;10436787;28;20314;-70
2022/07/17 01:55:34;;;;;;;3.37;3.07;;;19.80;23.10;;;;;;10433062;28;20229;-70
2022/07/17 02:00:38;;;;;;;6.00;3.40;;;19.80;23.40;;;;;;10432479;28;20279;-70
2022/07/17 02:05:41;;;;;;;3.60;3.20;;;19.80;23.10;;;;;;10436838;28;20229;-70
2022/07/17 02:10:46;;;;;;;4.73;3.30;;;19.70;22.90;;;;;;10437461;28;20233;-70
2022/07/17 02:15:49;;;;;;;3.33;3.10;;;19.70;23.40;;;;;;10437580;28;20236;-70
2022/07/17 02:20:52;;;;;;;2.70;2.50;;;19.60;23.10;;;;;;10437841;28;20225;-70
2022/07/17 02:25:57;;;;;;;3.10;2.80;;;19.50;23.00;;;;;;10430465;28;20581;-70
2022/07/17 02:31:00;;;;;;;4.53;4.13;;;19.40;23.50;;;;;;10430755;28;20227;-70
2022/07/17 02:36:04;;;;;;;8.33;7.53;;;19.40;23.30;;;;;;10434096;28;20854;-70
2022/07/17 02:41:09;;;;;;;10.33;9.23;;;19.30;23.40;;;;;;10435684;28;20255;-70
2022/07/17 02:46:13;;;;;;;8.87;7.97;;;19.30;23.70;;;;;;10439811;28;20221;-70
2022/07/17 02:51:16;;;;;;;7.37;6.67;;;19.20;23.50;;;;;;10432465;28;20256;-70
2022/07/17 02:56:21;;;;;;;6.00;4.80;;;19.10;23.50;;;;;;10441182;28;20241;-70
2022/07/17 03:01:24;;;;;;;4.30;3.70;;;19.00;23.80;;;;;;10432343;28;20236;-70
2022/07/17 03:06:28;;;;;;;3.57;3.03;;;18.90;23.60;;;;;;10435833;28;20717;-70
2022/07/17 03:11:32;;;;;;;4.17;2.97;;;18.80;23.80;;;;;;10440565;28;20231;-70
2022/07/17 03:16:36;;;;;;;4.00;3.07;;;18.70;24.40;;;;;;10441319;28;20224;-70
2022/07/17 03:21:39;;;;;;;4.37;2.90;;;18.60;24.20;;;;;;10433671;28;20232;-70
2022/07/17 03:26:44;;;;;;;3.13;2.83;;;18.50;24.30;;;;;;10436992;28;20224;-70
2022/07/17 03:31:48;;;;;;;3.80;3.47;;;18.50;24.30;;;;;;10433895;28;20279;-70
2022/07/17 03:36:51;;;;;;;5.30;4.80;;;18.40;24.30;;;;;;10427181;28;20241;-70
2022/07/17 03:41:56;;;;;;;6.57;5.73;;;18.40;24.30;;;;;;10440795;28;20224;-70
2022/07/17 03:46:59;;;;;;;5.50;5.00;;;18.40;24.40;;;;;;10438380;28;20231;-70
2022/07/17 03:52:02;;;;;;;5.60;5.10;;;18.40;24.20;;;;;;10437944;28;20224;-70
2022/07/17 03:57:07;;;;;;;5.07;4.10;;;18.40;24.20;;;;;;10430983;28;20221;-70
2022/07/17 04:02:10;;;;;;;4.13;3.23;;;18.30;24.20;;;;;;10440046;28;20231;-70
2022/07/17 04:12:32;;;;;;;3.03;2.83;;;18.00;24.10;;;;;;10437148;28;20717;-70
2022/07/17 04:17:35;;;;;;;3.33;3.00;;;18.00;24.90;;;;;;10439486;28;20233;-70
2022/07/17 04:22:38;;;;;;;3.50;3.20;;;18.00;24.80;;;;;;10445057;28;20239;-70
2022/07/17 04:27:43;;;;;;;3.80;3.50;;;17.90;24.90;;;;;;10439942;28;20229;-70
2022/07/17 04:32:46;;;;;;;4.20;3.80;;;17.90;25.40;;;;;;10425111;28;20768;-70
2022/07/17 04:37:49;;;;;;;3.70;3.40;;;18.00;25.30;;;;;;10443104;28;20232;-70
2022/07/17 04:42:54;;;;;;;3.23;2.93;;;18.00;25.20;;;;;;10434822;28;20246;-70
2022/07/17 04:47:57;;;;;;;2.90;2.70;;;18.00;25.70;;;;;;10439095;28;20227;-70
2022/07/17 04:53:01;;;;;;;3.30;3.00;;;17.80;25.30;;;;;;10435845;28;20233;-70
2022/07/17 04:58:06;;;;;;;3.23;2.93;;;17.80;25.70;;;;;;10432832;28;20224;-70
2022/07/17 05:03:09;;;;;;;3.23;2.93;;;17.70;26.20;;;;;;10434025;28;20226;-70
2022/07/17 05:08:12;;;;;;;3.03;2.73;;;17.70;26.00;;;;;;10440449;28;20229;-70
2022/07/17 05:13:17;;;;;;;3.63;3.10;;;17.80;26.20;;;;;;10440300;28;20224;-70
2022/07/17 05:18:20;;;;;;;4.97;3.20;;;17.80;26.70;;;;;;10438946;28;20233;-71
2022/07/17 05:23:23;;;;;;;4.77;3.17;;;17.90;26.40;;;;;;10438147;28;20729;-70
2022/07/17 05:28:28;;;;;;;3.00;2.67;;;18.00;26.30;;;;;;10433747;28;20262;-70
2022/07/17 05:33:39;;;;;;;2.87;2.60;;;18.20;26.90;;;;;;10426962;28;20221;-70
2022/07/17 05:38:42;;;;;;;3.27;2.93;;;18.30;26.40;;;;;;10434429;28;20233;-71
2022/07/17 05:43:47;;;;;;;3.13;2.87;;;18.50;26.70;;;;;;10427252;28;20240;-70
2022/07/17 05:48:50;;;;;;;3.57;2.57;;;18.60;26.80;;;;;;10425428;28;20225;-70
2022/07/17 05:53:53;;;;;;;6.13;2.63;;;18.70;26.60;;;;;;10433746;28;20220;-70
2022/07/17 05:58:58;;;;;;;2.80;2.60;;;18.90;26.70;;;;;;10425999;28;20240;-70
2022/07/17 06:04:01;;;;;;;4.43;3.80;;;19.10;26.90;;;;;;10437605;28;20224;-70
2022/07/17 06:09:05;;;;;;;3.40;2.57;;;19.20;26.70;;;;;;10438873;28;20244;-70
2022/07/17 06:14:09;;;;;;;2.50;2.30;;;19.40;26.80;;;;;;10436458;28;20723;-71
2022/07/17 06:19:12;;;;;;;5.00;2.67;;;19.50;27.00;;;;;;10435290;28;20233;-70
2022/07/17 06:24:15;;;;;;;2.33;2.13;;;19.70;26.80;;;;;;10433459;28;20225;-71
2022/07/17 06:29:20;;;;;;;2.43;2.23;;;19.90;26.80;;;;;;10430887;28;20221;-71
2022/07/17 06:34:23;;;;;;;2.27;2.00;;;20.00;26.80;;;;;;10429073;28;20230;-71
2022/07/17 06:39:26;;;;;;;3.17;2.20;;;20.20;26.60;;;;;;10430633;28;20240;-71
2022/07/17 06:44:31;;;;;;;2.50;2.30;;;20.40;26.50;;;;;;10432635;28;20225;-71
2022/07/17 06:49:34;;;;;;;2.47;2.27;;;20.60;26.80;;;;;;10432899;28;20228;-71
2022/07/17 06:54:38;;;;;;;2.40;2.20;;;20.80;26.50;;;;;;10427241;28;20254;-70
2022/07/17 06:59:42;;;;;;;2.33;2.13;;;21.00;26.40;;;;;;10431058;28;20236;-70
2022/07/17 07:04:46;;;;;;;2.73;1.90;;;21.20;26.60;;;;;;10428479;28;20901;-70
2022/07/17 07:09:50;;;;;;;2.97;2.30;;;21.40;26.30;;;;;;10428081;28;20299;-71
2022/07/17 07:14:55;;;;;;;2.50;2.30;;;21.60;26.40;;;;;;10426516;28;20226;-69
2022/07/17 07:19:58;;;;;;;2.13;1.83;;;21.80;26.50;;;;;;10421719;28;20316;-70
2022/07/17 07:25:01;;;;;;;2.20;2.00;;;22.00;26.70;;;;;;10427361;28;20221;-71
2022/07/17 07:30:09;;;;;;;1.80;1.70;;;22.20;26.60;;;;;;10427861;28;20229;-71
2022/07/17 07:35:13;;;;;;;3.13;1.67;;;22.40;26.40;;;;;;10428135;28;20738;-70
2022/07/17 07:40:16;;;;;;;2.30;2.10;;;22.70;26.20;;;;;;10429711;28;20232;-70
2022/07/17 07:45:21;;;;;;;2.07;1.70;;;22.90;26.00;;;;;;10434581;28;20235;-71
2022/07/17 07:50:26;;;;;;;2.70;2.00;;;23.10;25.90;;;;;;10435643;28;20256;-71
2022/07/17 07:55:29;;;;;;;2.07;1.80;;;23.30;25.60;;;;;;10434644;28;20223;-72
2022/07/17 08:00:34;;;;;;;2.00;1.80;;;23.50;25.60;;;;;;10433223;28;21024;-72
2022/07/17 08:05:38;;;;;;;2.53;2.00;;;23.80;25.50;;;;;;10429886;28;20229;-72
2022/07/17 08:10:41;;;;;;;2.53;1.90;;;24.10;25.30;;;;;;10432192;28;20239;-71
2022/07/17 08:15:46;;;;;;;2.13;2.00;;;24.30;25.30;;;;;;10431132;28;20225;-71
2022/07/17 08:20:49;;;;;;;2.63;2.20;;;24.60;25.10;;;;;;10427818;28;20228;-70
2022/07/17 08:25:52;;;;;;;2.13;1.93;;;24.80;24.90;;;;;;10424455;28;20225;-70
2022/07/17 08:30:57;;;;;;;1.83;1.73;;;25.10;24.70;;;;;;10427912;28;20233;-71
2022/07/17 08:36:00;;;;;;;1.90;1.80;;;25.30;24.20;;;;;;10435527;28;20232;-72
2022/07/17 08:41:04;;;;;;;2.00;1.90;;;25.60;24.20;;;;;;10432493;28;20240;-71
2022/07/17 08:46:11;;;;;;;1.93;1.83;;;25.80;23.40;;;;;;10433149;28;20225;-71
2022/07/17 08:51:17;;;;;;;1.97;1.87;;;26.10;22.80;;;;;;10428686;28;20240;-71
2022/07/17 08:56:20;;;;;;;1.73;1.63;;;26.20;22.10;;;;;;10436000;28;20227;-72
2022/07/17 09:01:26;;;;;;;1.67;1.57;;;26.40;22.50;;;;;;10426910;28;20231;-70
2022/07/17 09:06:29;;;;;;;2.10;1.90;;;26.70;21.40;;;;;;10432772;28;20221;-71
2022/07/17 09:11:44;;;;;;;2.07;1.87;;;26.90;21.80;;;;;;10425239;28;20236;-71
2022/07/17 09:16:54;;;;;;;2.00;1.90;;;27.00;20.80;;;;;;10430250;28;20339;-70
2022/07/17 09:22:12;;;;;;;2.17;1.80;;;27.20;20.20;;;;;;10432133;28;20229;-70
2022/07/17 09:27:29;;;;;;;1.90;1.80;;;27.40;20.00;;;;;;10431374;28;20592;-70
2022/07/17 09:32:36;;;;;;;3.43;1.90;;;27.60;20.20;;;;;;10433742;28;20228;-71
2022/07/17 09:37:40;;;;;;;2.17;1.80;;;27.80;20.00;;;;;;10431172;28;20224;-70
2022/07/17 09:42:45;;;;;;;2.07;1.70;;;28.00;20.10;;;;;;10431326;28;20239;-71
2022/07/17 09:47:52;;;;;;;4.57;1.77;;;28.10;19.80;;;;;;10430970;28;20724;-71
2022/07/17 09:52:57;;;;;;;1.90;1.80;;;28.30;19.00;;;;;;10433003;28;20225;-70
2022/07/17 09:58:02;;;;;;;2.20;1.87;;;28.40;18.90;;;;;;10433362;28;20228;-70
2022/07/17 10:03:07;;;;;;;2.17;1.73;;;28.50;19.30;;;;;;10430867;28;20225;-70
2022/07/17 10:08:11;;;;;;;1.60;1.50;;;28.70;18.70;;;;;;10430478;28;20344;-72
2022/07/17 10:13:16;;;;;;;1.77;1.67;;;28.90;18.40;;;;;;10427230;28;20230;-70
2022/07/17 10:18:22;;;;;;;1.97;1.60;;;29.00;18.10;;;;;;10431753;28;20232;-70
2022/07/17 10:23:25;;;;;;;1.80;1.70;;;29.10;17.20;;;;;;10431446;28;20275;-70
2022/07/17 10:28:42;;;;;;;2.03;1.90;;;29.20;18.00;;;;;;10426247;28;20225;-70
2022/07/17 10:33:56;;;;;;;1.60;1.47;;;29.30;16.00;;;;;;10431787;28;20224;-70
2022/07/17 10:38:59;;;;;;;1.70;1.60;;;29.30;16.30;;;;;;10432018;28;20235;-70
2022/07/17 10:44:02;;;;;;;1.70;1.60;;;29.40;17.00;;;;;;10431151;28;20247;-70
2022/07/17 10:49:07;;;;;;;1.53;1.43;;;29.50;16.80;;;;;;10430272;28;20225;-70
2022/07/17 10:54:11;;;;;;;1.77;1.67;;;29.60;16.50;;;;;;10434264;28;20241;-70
2022/07/17 10:59:14;;;;;;;1.60;1.50;;;29.70;17.40;;;;;;10432226;28;20237;-70
2022/07/17 11:04:19;;;;;;;1.90;1.80;;;29.80;16.80;;;;;;10429076;28;20353;-70
2022/07/17 11:09:22;;;;;;;1.77;1.67;;;29.90;16.80;;;;;;10424945;28;20765;-70
2022/07/17 11:14:27;;;;;;;1.73;1.63;;;30.00;16.70;;;;;;10429943;28;20592;-70
2022/07/17 11:19:33;;;;;;;1.80;1.70;;;30.10;16.20;;;;;;10430078;28;20233;-70
2022/07/17 11:24:37;;;;;;;1.77;1.50;;;30.20;15.90;;;;;;10430916;28;20227;-70
2022/07/17 11:29:41;;;;;;;2.00;1.70;;;30.30;16.00;;;;;;10421809;28;20230;-70
2022/07/17 11:34:47;;;;;;;1.80;1.47;;;30.40;15.50;;;;;;10423759;28;21006;-70
2022/07/17 11:39:51;;;;;;;1.50;1.40;;;30.60;15.00;;;;;;10424178;28;20229;-70
2022/07/17 11:44:57;;;;;;;2.13;1.50;;;30.60;14.60;;;;;;10428223;28;20290;-70
2022/07/17 11:50:11;;;;;;;1.90;1.80;;;30.60;14.00;;;;;;10429709;28;20232;-71
2022/07/17 11:55:15;;;;;;;1.83;1.73;;;30.60;12.70;;;;;;10429981;28;20227;-70
2022/07/17 12:00:21;;;;;;;1.27;1.17;;;30.60;14.10;;;;;;10428404;28;20239;-70
2022/07/17 12:05:28;;;;;;;1.67;1.57;;;30.60;13.90;;;;;;10427397;28;20222;-70
2022/07/17 12:10:32;;;;;;;1.60;1.50;;;30.60;12.80;;;;;;10430774;28;20224;-70
2022/07/17 12:15:38;;;;;;;1.70;1.60;;;30.60;13.60;;;;;;10432340;28;20217;-70
2022/07/17 12:20:45;;;;;;;1.53;1.43;;;30.60;13.40;;;;;;10427136;28;20236;-71
2022/07/17 12:25:49;;;;;;;1.60;1.50;;;30.60;13.00;;;;;;10427660;28;21157;-71
2022/07/17 12:30:52;;;;;;;1.70;1.57;;;30.60;13.60;;;;;;10428120;28;20578;-73
2022/07/17 12:35:57;;;;;;;1.40;1.40;;;30.70;13.40;;;;;;10432607;28;20316;-72
2022/07/17 12:41:01;;;;;;;1.57;1.40;;;30.70;13.30;;;;;;10434310;28;20225;-72
2022/07/17 12:46:05;;;;;;;1.80;1.70;;;30.80;13.50;;;;;;10432789;28;20271;-71
2022/07/17 12:51:17;;;;;;;1.60;1.23;;;30.90;13.10;;;;;;10430205;28;20239;-71
2022/07/17 12:56:20;;;;;;;1.63;1.53;;;31.00;12.90;;;;;;10429207;28;20220;-71
2022/07/17 13:01:24;;;;;;;1.50;1.40;;;31.10;12.90;;;;;;10430584;28;20286;-71
2022/07/17 13:06:29;;;;;;;1.67;1.57;;;31.20;12.40;;;;;;10426211;28;20235;-71
2022/07/17 13:11:34;;;;;;;1.50;1.40;;;31.20;11.70;;;;;;10421465;28;20701;-72
2022/07/17 13:16:37;;;;;;;1.93;1.40;;;31.20;11.80;;;;;;10428432;28;20788;-72
2022/07/17 13:21:42;;;;;;;1.53;1.20;;;31.10;11.80;;;;;;10436026;28;20233;-72
2022/07/17 13:26:45;;;;;;;1.70;1.40;;;31.10;11.10;;;;;;10434570;28;20221;-71
2022/07/17 13:31:49;;;;;;;1.40;1.30;;;31.10;11.50;;;;;;10436334;28;20229;-71
2022/07/17 13:37:00;;;;;;;1.60;1.40;;;31.10;11.90;;;;;;10433499;28;20270;-72
2022/07/17 13:42:09;;;;;;;1.57;1.40;;;31.20;11.20;;;;;;10432457;28;20229;-71
2022/07/17 13:47:12;;;;;;;1.20;1.10;;;31.20;11.20;;;;;;10435676;28;20229;-72
2022/07/17 13:52:17;;;;;;;2.70;1.50;;;31.30;11.20;;;;;;10433468;28;20236;-71
2022/07/17 13:57:20;;;;;;;1.20;1.20;;;31.40;11.30;;;;;;10433541;28;20279;-71
2022/07/17 14:02:23;;;;;;;1.97;1.30;;;31.50;11.10;;;;;;10431370;28;20242;-71
2022/07/17 14:07:28;;;;;;;1.40;1.30;;;31.50;11.30;;;;;;10429131;28;20225;-72
2022/07/17 14:12:31;;;;;;;1.20;1.20;;;31.60;10.50;;;;;;10432050;28;20236;-71
2022/07/17 14:17:35;;;;;;;1.80;1.27;;;31.70;10.60;;;;;;10430495;28;20260;-71
2022/07/17 14:22:39;;;;;;;1.10;1.10;;;31.70;10.10;;;;;;10431696;28;20279;-71
2022/07/17 14:27:43;;;;;;;2.23;1.30;;;31.70;9.40;;;;;;10429206;28;20224;-72
2022/07/17 14:32:46;;;;;;;1.20;1.20;;;31.60;9.60;;;;;;10429897;28;20224;-72
2022/07/17 14:37:50;;;;;;;1.30;1.27;;;31.60;9.90;;;;;;10429134;28;20809;-71
2022/07/17 14:42:54;;;;;;;1.27;1.20;;;31.60;9.30;;;;;;10431993;28;20232;-72
2022/07/17 14:47:57;;;;;;;1.10;1.10;;;31.70;9.80;;;;;;10430585;28;20225;-71
2022/07/17 14:53:02;;;;;;;1.60;1.50;;;31.70;9.50;;;;;;10433371;28;20233;-71
2022/07/17 14:58:05;;;;;;;1.80;1.30;;;31.80;8.80;;;;;;10433533;28;20229;-71
2022/07/17 15:03:08;;;;;;;1.30;1.30;;;31.80;9.20;;;;;;10431663;28;20709;-71
2022/07/17 15:08:13;;;;;;;1.17;1.17;;;31.90;9.10;;;;;;10419865;28;20220;-71
2022/07/17 15:13:16;;;;;;;1.27;1.27;;;31.90;8.60;;;;;;10429599;28;20601;-72
2022/07/17 15:18:19;;;;;;;1.23;1.20;;;31.90;8.70;;;;;;10432374;28;20570;-71
2022/07/17 15:23:24;;;;;;;1.30;1.20;;;32.00;8.60;;;;;;10426994;28;20240;-72
2022/07/17 15:28:27;;;;;;;1.30;1.27;;;32.00;8.00;;;;;;10423527;28;20230;-72
2022/07/17 15:33:30;;;;;;;1.30;1.20;;;32.10;8.50;;;;;;10420988;28;20279;-71
2022/07/17 15:38:35;;;;;;;2.73;1.27;;;32.10;8.30;;;;;;10422080;28;20232;-71
2022/07/17 15:43:38;;;;;;;1.40;1.30;;;32.20;7.80;;;;;;10421529;28;20237;-71
2022/07/17 15:48:41;;;;;;;2.20;2.10;;;32.20;7.90;;;;;;10420748;28;20231;-71
2022/07/17 15:53:46;;;;;;;1.60;1.50;;;32.20;8.20;;;;;;10423035;28;20310;-71
2022/07/17 15:58:49;;;;;;;1.50;1.40;;;32.20;7.50;;;;;;10429212;28;20237;-71
2022/07/17 16:03:53;;;;;;;1.33;1.30;;;32.10;8.20;;;;;;10431955;28;20229;-71
2022/07/17 16:09:05;;;;;;;1.57;1.20;;;32.10;8.10;;;;;;10433212;28;20315;-72
2022/07/17 16:14:09;;;;;;;1.27;1.20;;;32.10;7.60;;;;;;10435373;28;20232;-72
2022/07/17 16:19:12;;;;;;;1.40;1.30;;;32.10;7.80;;;;;;10437769;28;20702;-72
2022/07/17 16:24:17;;;;;;;1.40;1.33;;;32.10;7.60;;;;;;10433770;28;20761;-72
2022/07/17 16:29:20;;;;;;;1.30;1.30;;;32.10;7.70;;;;;;10438866;28;20880;-72
2022/07/17 16:34:24;;;;;;;2.07;1.30;;;32.10;7.70;;;;;;10439036;28;20225;-72
2022/07/17 16:39:29;;;;;;;1.60;1.50;;;32.10;7.70;;;;;;10439834;28;20228;-72
2022/07/17 16:44:32;;;;;;;1.33;1.23;;;32.10;7.60;;;;;;10436595;28;20795;-72
2022/07/17 16:49:35;;;;;;;1.40;1.30;;;32.10;7.70;;;;;;10438759;28;20599;-72
2022/07/17 16:54:40;;;;;;;1.60;1.50;;;32.10;7.70;;;;;;10433394;28;20227;-72
2022/07/17 16:59:43;;;;;;;1.57;1.47;;;32.10;7.40;;;;;;10437451;28;20229;-72
2022/07/17 17:04:46;;;;;;;12.53;10.63;;;32.20;8.40;;;;;;10436071;28;20734;-72
2022/07/17 17:09:51;;;;;;;3.77;3.10;;;32.20;7.70;;;;;;10436065;28;20225;-72
2022/07/17 17:14:54;;;;;;;2.30;2.20;;;32.20;7.30;;;;;;10435656;28;20300;-71
2022/07/17 17:19:57;;;;;;;1.70;1.60;;;32.10;7.70;;;;;;10432202;28;20790;-72
2022/07/17 17:25:03;;;;;;;1.60;1.50;;;32.10;7.50;;;;;;10435805;28;20221;-71
2022/07/17 17:30:08;;;;;;;1.40;1.30;;;32.10;7.80;;;;;;10437725;28;20233;-71
2022/07/17 17:35:11;;;;;;;1.40;1.30;;;32.20;7.70;;;;;;10434272;28;20225;-72
2022/07/17 17:40:16;;;;;;;2.63;2.40;;;32.30;7.80;;;;;;10422492;28;20580;-72
2022/07/17 17:45:20;;;;;;;2.00;1.90;;;32.30;7.60;;;;;;10427058;28;20227;-72
2022/07/17 17:50:23;;;;;;;2.20;2.10;;;32.30;7.80;;;;;;10424267;28;20608;-72
2022/07/17 17:55:28;;;;;;;1.80;1.70;;;32.20;7.80;;;;;;10428592;28;20221;-72
2022/07/17 18:00:31;;;;;;;1.60;1.50;;;32.10;7.70;;;;;;10423760;28;20228;-71
2022/07/17 18:05:36;;;;;;;1.50;1.40;;;32.00;8.10;;;;;;10426956;28;20231;-71
2022/07/17 18:10:45;;;;;;;1.43;1.33;;;32.00;8.60;;;;;;10429212;28;20228;-72
2022/07/17 18:15:48;;;;;;;1.30;1.20;;;32.00;8.70;;;;;;10429951;28;20244;-71
2022/07/17 18:20:52;;;;;;;1.60;1.50;;;31.90;8.70;;;;;;10432311;28;20245;-73
2022/07/17 18:25:56;;;;;;;1.40;1.30;;;31.80;8.90;;;;;;10434768;28;20228;-73
2022/07/17 18:31:00;;;;;;;1.40;1.30;;;31.60;9.30;;;;;;10434366;28;20217;-72
2022/07/17 18:36:04;;;;;;;1.43;1.33;;;31.50;9.60;;;;;;10434327;28;20236;-72
2022/07/17 18:41:08;;;;;;;1.40;1.30;;;31.30;9.70;;;;;;10430295;28;20225;-72
2022/07/17 18:46:12;;;;;;;2.20;1.67;;;31.20;10.30;;;;;;10430344;28;20236;-71
2022/07/17 18:51:15;;;;;;;2.10;1.60;;;31.00;10.30;;;;;;10433246;28;20237;-72
2022/07/17 18:56:20;;;;;;;1.27;1.17;;;30.80;10.90;;;;;;10426439;28;20225;-71
2022/07/17 19:01:23;;;;;;;3.67;1.50;;;30.70;10.90;;;;;;10431476;28;20225;-72
2022/07/17 19:06:27;;;;;;;1.60;1.50;;;30.50;10.80;;;;;;10427427;28;20252;-72
2022/07/17 19:11:32;;;;;;;1.50;1.40;;;30.30;10.70;;;;;;10420884;28;20226;-71
2022/07/17 19:16:36;;;;;;;1.40;1.30;;;30.20;11.10;;;;;;10424916;28;20224;-71
2022/07/17 19:21:39;;;;;;;1.50;1.20;;;30.00;11.20;;;;;;10426230;28;20364;-72
2022/07/17 19:26:44;;;;;;;2.67;1.33;;;29.90;11.70;;;;;;10429008;28;20228;-71
2022/07/17 19:31:48;;;;;;;1.40;1.30;;;29.70;12.00;;;;;;10426002;28;20240;-72
2022/07/17 19:36:51;;;;;;;3.67;1.47;;;29.50;11.80;;;;;;10430647;28;20728;-71
2022/07/17 19:41:56;;;;;;;1.47;1.37;;;29.30;11.70;;;;;;10429485;28;20229;-71
2022/07/17 19:46:59;;;;;;;1.50;1.40;;;28.90;12.20;;;;;;10432075;28;20736;-72
2022/07/17 19:52:03;;;;;;;1.50;1.40;;;28.50;12.10;;;;;;10424228;28;20264;-72
2022/07/17 19:57:07;;;;;;;1.40;1.30;;;28.20;12.40;;;;;;10428705;28;20247;-72
2022/07/17 20:02:11;;;;;;;2.10;1.40;;;28.00;13.70;;;;;;10430402;28;20865;-71
2022/07/17 20:07:14;;;;;;;1.90;1.80;;;27.90;13.00;;;;;;10431527;28;20613;-72
2022/07/17 20:12:20;;;;;;;1.67;1.57;;;27.70;13.10;;;;;;10419640;28;20242;-72
2022/07/17 20:17:23;;;;;;;1.93;1.73;;;27.40;13.50;;;;;;10429818;28;20225;-71
2022/07/17 20:22:26;;;;;;;1.60;1.50;;;27.10;13.30;;;;;;10427091;28;21643;-72
2022/07/17 20:27:31;;;;;;;2.07;1.47;;;26.90;13.70;;;;;;10431965;28;20240;-71
2022/07/17 20:32:35;;;;;;;2.00;1.80;;;26.70;14.20;;;;;;10429487;28;20232;-71
2022/07/17 20:37:39;;;;;;;1.60;1.50;;;26.50;14.10;;;;;;10428324;28;20727;-72
2022/07/17 20:42:43;;;;;;;1.80;1.70;;;26.30;14.40;;;;;;10429738;28;20249;-71
2022/07/17 20:47:47;;;;;;;1.50;1.40;;;26.00;15.00;;;;;;10431738;28;20229;-72
2022/07/17 20:52:51;;;;;;;1.70;1.60;;;25.70;15.00;;;;;;10430912;28;20240;-71
2022/07/17 20:57:56;;;;;;;2.17;1.97;;;25.60;15.30;;;;;;10429874;28;20592;-71
2022/07/17 21:02:59;;;;;;;3.20;1.97;;;25.50;15.70;;;;;;10427996;28;20229;-72
2022/07/17 21:08:02;;;;;;;2.03;1.83;;;25.30;15.50;;;;;;10429841;28;20240;-71
2022/07/17 21:13:07;;;;;;;2.43;1.60;;;25.10;15.70;;;;;;10425426;28;20224;-71
2022/07/17 21:18:11;;;;;;;2.70;1.80;;;25.00;16.20;;;;;;10424705;28;20233;-71
2022/07/17 21:23:14;;;;;;;2.60;1.77;;;24.80;16.10;;;;;;10430885;28;20244;-72
2022/07/17 21:28:21;;;;;;;2.57;1.73;;;24.70;16.20;;;;;;10429687;28;20221;-71
2022/07/17 21:33:26;;;;;;;1.90;1.80;;;24.50;16.70;;;;;;10430656;28;20241;-71
2022/07/17 21:38:30;;;;;;;2.03;1.80;;;24.20;16.40;;;;;;10429646;28;20251;-71
2022/07/17 21:43:35;;;;;;;1.63;1.53;;;24.00;16.80;;;;;;10427912;28;20228;-71
2022/07/17 21:48:38;;;;;;;1.70;1.60;;;23.70;17.60;;;;;;10430273;28;20221;-71
2022/07/17 21:53:42;;;;;;;2.70;1.70;;;23.50;17.50;;;;;;10430119;28;20236;-71
2022/07/17 21:58:47;;;;;;;1.80;1.60;;;23.20;17.30;;;;;;10429032;28;20717;-72
2022/07/17 22:03:51;;;;;;;1.57;1.47;;;23.10;18.00;;;;;;10428164;28;20228;-71
2022/07/17 22:08:54;;;;;;;1.90;1.70;;;23.10;17.70;;;;;;10422334;28;20221;-71
2022/07/17 22:13:59;;;;;;;2.00;1.80;;;23.10;18.00;;;;;;10427969;28;20228;-71
2022/07/17 22:19:03;;;;;;;2.10;1.83;;;23.10;18.60;;;;;;10429536;28;20250;-71
2022/07/17 22:24:07;;;;;;;2.00;1.80;;;23.10;18.20;;;;;;10427625;28;20229;-71
2022/07/17 22:29:12;;;;;;;3.13;1.47;;;23.10;18.50;;;;;;10433333;28;20221;-72
2022/07/17 22:34:15;;;;;;;1.93;1.80;;;23.00;18.90;;;;;;10433150;28;20225;-71
2022/07/17 22:39:19;;;;;;;1.50;1.40;;;23.00;18.40;;;;;;10431933;28;20217;-72
2022/07/17 22:44:23;;;;;;;2.40;1.60;;;23.00;18.20;;;;;;10433754;28;21363;-71
2022/07/17 22:49:27;;;;;;;2.20;1.73;;;23.00;18.90;;;;;;10429713;28;20229;-71
2022/07/17 22:54:30;;;;;;;1.50;1.40;;;22.90;18.70;;;;;;10432153;28;20220;-71
2022/07/17 22:59:35;;;;;;;3.57;1.77;;;22.80;18.80;;;;;;10431747;28;20245;-72
2022/07/17 23:04:38;;;;;;;2.00;1.90;;;22.70;19.10;;;;;;10435235;28;20228;-72
2022/07/17 23:09:42;;;;;;;2.10;1.90;;;22.50;18.70;;;;;;10428566;28;20379;-72
2022/07/17 23:14:47;;;;;;;1.97;1.80;;;22.30;19.00;;;;;;10432201;28;20594;-71
2022/07/17 23:19:57;;;;;;;1.80;1.70;;;22.20;20.00;;;;;;10432664;28;20229;-71
2022/07/17 23:25:01;;;;;;;3.13;2.10;;;21.90;19.20;;;;;;10432068;28;20225;-72
2022/07/17 23:30:07;;;;;;;1.80;1.70;;;21.70;19.60;;;;;;10432372;28;20251;-71
2022/07/17 23:35:10;;;;;;;3.77;2.13;;;21.40;20.00;;;;;;10428931;28;20232;-71
2022/07/17 23:40:13;;;;;;;3.07;1.80;;;21.20;20.00;;;;;;10431851;28;20240;-71
2022/07/17 23:45:18;;;;;;;3.17;2.00;;;21.00;20.20;;;;;;10428956;28;20623;-72
2022/07/17 23:50:21;;;;;;;1.80;1.70;;;20.90;20.80;;;;;;10430173;28;20236;-71
2022/07/17 23:55:25;;;;;;;2.33;1.80;;;20.80;20.60;;;;;;10433760;28;20236;-72
